Aircraft
UPR1002 PT-GAA C172
SNKF
Das Bandeirinhas Airport
SBBQ
Major Brigadeiro Doorgal Borges Airport
Pilot:: Claudenir
Aircraft:: C172SP Classic Passengers
Alternate: SBJF
Network: ivao
FLIGHT DETAILS
Distance: 32nm Duration 00h 16m
Cruise Speed: Flight Level: 6500
Validation: Validated Type Charter
Flight Fuel
ZFW: 856
Block Fuel/Initial FOB: 87
Flight Fuel: 11
Cargo
Passengers: 2
Cargo: 10
ROUTE
ROUTE: DCT
REMARKS:
DATE
Date: 26-05-08
Departure Time: 2343
Cargo: 10
FLIGHT DETAILS
Crashed: No
Validator Comments: Validado por Rafael
Flight Rating: 95
LANDING ANALYSIS
Landing wind: 45º/9 kt
Landing heading: 188º
Landing VS:: -25 ft/min
Landing IAS:: 64 kt
Landing Force G: 1 G
Landing Bank: 0
Landing Pitch: -3
Landing Flaps: 100
Navigation Lights: ON
Landing Lights: ON
Beacon Lights: ON
Strobe Lights: ON
viserfly

ALTITUDE CHART

viserfly

MAIN EVENTS

DATE EVENT IAS ALTITUDE
2026-05-07 23:42:28 FLYacars version 1.3.5 0 3427
2026-05-07 23:42:28 Aircraft boarding in progress 0 3427
2026-05-07 23:42:28 FLAPS 33% 0 3427
2026-05-07 23:42:28 Navigation Lights ON 0 3427
2026-05-07 23:42:28 Beacon Lights ON 0 3427
2026-05-07 23:42:28 Strobe Lights ON 0 3427
2026-05-07 23:42:28 Landing Lights ON 0 3427
2026-05-07 23:42:28 Starting Engine 1 0 3427
2026-05-07 23:42:43 Aircraft taxiing to runway 0 3428
2026-05-07 23:43:03 Stall flag 36 3444
2026-05-07 23:43:05 Detected Take-off roll, HDG 227, IAS 39kt, GS 55kt, G-force 0.9g, Pitch -13.8deg, Bank 13.3deg, Wind 077/05kt, Temp 18°C 39 3447
2026-05-07 23:43:05 Airborne 39 3447
2026-05-07 23:43:29 FLAPS 0% 56kt, ALT 3540ft 56 3540
2026-05-07 23:49:45 Aircraft on Top Of Climb at 6113ft, IAS 92kt, GS 117kt, HDG 194deg, TAT 13deg, WIND 36/15kt 92 6113
2026-05-07 23:54:18 Aircraft on Top Of Descent at 5999ft, IAS 118kt, GS 142kt, HDG 196deg, TAT 13deg, WIND 37/14kt 118 5999
2026-05-07 23:56:18 FLAPS 33% 101kt, ALT 5041ft 101 5041
2026-05-07 23:57:15 FLAPS 66% 100kt, ALT 4653ft 100 4653
2026-05-07 23:57:46 FLAPS 100% 90kt, ALT 4545ft 90 4545
2026-05-08 00:00:07 Landed at destination with a landing rate of -25fpm, G-force 1.0g, Pitch -2.8deg, Bank -0.1deg, HDG 188deg, IAS 64kt, GS 80kt, Wind 045/09kt, Temp 18°C 64 3638
2026-05-08 00:00:22 Aircraft taxiing to apron 7 3644
2026-05-08 00:00:32 FLAPS 66% 0 3644
2026-05-08 00:00:33 FLAPS 0% 1 3644
2026-05-08 00:01:43 Aircraft at gate/stand, ground services are moving into position, disembarkation has begun. Remaining FOB 76kg FLYacars v1.3.5 0 3638
viserfly

ACARS DATA

DATE IAS GS ALTITUDE FUEL CONSUMED OAT FLIGHT STATUS
2026-05-07 23:42:58 26 43 3439 0 18 TAXI TO RUNWAY
2026-05-07 23:43:28 55 71 3532 0 18 TAKEOFF
2026-05-07 23:43:58 68 86 3715 1 17 TAKEOFF
2026-05-07 23:44:28 70 80 3925 1 17 TAKEOFF
2026-05-07 23:44:58 77 92 4154 1 16 TAKEOFF
2026-05-07 23:45:28 88 106 4389 2 16 TAKEOFF
2026-05-07 23:45:58 97 115 4610 2 15 INITIAL CLIMB
2026-05-07 23:46:28 96 117 4811 3 15 INITIAL CLIMB
2026-05-07 23:46:58 99 121 5007 3 15 INITIAL CLIMB
2026-05-07 23:47:28 95 116 5201 3 14 INITIAL CLIMB
2026-05-07 23:47:58 90 111 5395 4 14 INITIAL CLIMB
2026-05-07 23:48:28 92 115 5595 4 14 INITIAL CLIMB
2026-05-07 23:48:58 95 116 5792 4 13 ENROUTE
2026-05-07 23:49:28 93 117 5999 5 13 CLIMB
2026-05-07 23:49:58 89 114 6192 5 13 CLIMB
2026-05-07 23:50:28 87 111 6381 5 12 CLIMB
2026-05-07 23:50:58 85 108 6570 6 12 ENROUTE
2026-05-07 23:51:28 94 116 6589 6 12 ENROUTE
2026-05-07 23:51:58 97 123 6584 6 12 ENROUTE
2026-05-07 23:52:28 103 128 6588 7 12 ENROUTE
2026-05-07 23:52:58 109 133 6526 7 12 DESCENT
2026-05-07 23:53:28 119 142 6246 7 12 DESCENT
2026-05-07 23:53:58 114 137 6076 8 13 ENROUTE
2026-05-07 23:54:28 120 144 5905 8 13 DESCENT
2026-05-07 23:54:58 125 148 5583 8 14 DESCENT
2026-05-07 23:55:28 128 149 5188 9 14 DESCENT
2026-05-07 23:55:58 110 135 5031 9 15 DESCENT
2026-05-07 23:56:28 95 123 5043 9 15 DESCENT
2026-05-07 23:56:58 108 130 4728 9 15 ON FINAL
2026-05-07 23:57:28 88 108 4646 10 16 APPROACH
2026-05-07 23:57:58 80 101 4453 10 16 ON FINAL
2026-05-07 23:58:28 78 95 4230 10 17 ON FINAL
2026-05-07 23:58:58 77 92 4104 10 17 ON FINAL
2026-05-07 23:59:28 78 94 3895 11 18 ON FINAL
2026-05-07 23:59:58 73 87 3639 11 18 ON FINAL
2026-05-08 00:00:28 2 10 3644 11 18 TAXI TO APRON
2026-05-08 00:00:58 14 24 3641 11 18 TAXI TO APRON
2026-05-08 00:01:28 0 0 3638 11 18 TAXI TO APRON
  • Join our VA!

    It has been 11 years of great learning, friendships, and stories.

  • Sign up now!